Trochu, Canada
Current Conditions -  °F | °C
As of 12:00 PM on Thursday 30 Oct 2014 (Local Time) from CYQF Reporting Station
Haze Haze  
Wind Chill: 18°   Ceiling: 300
Heat Index: 30°   Visibility: 3mi
Dew Point: 30°   Wind: 17mph
Humidity: 100%   Direction: 170°S
Pressure: 30.16"   Gusts: 25mph
Location:  51.83°N, 113.23°W
Report Text: CYQF 301800Z 17015G22KT 3SM BR OVC003 M01/M01 A3016 RMK ST8 SLP262
Loading
Personal Weather Stations






























Interactive Weather Map
Tropical Storm Tracking
New forecast layout! Learn more

10-Day Weather Forecast

Advertisements
Track Severe Weather on mobile